Time;durP1;ratioP1;P1;durP2;ratioP2;P2;SDS_P1;SDS_P2;PMS_P1;PMS_P2;Temp;Humidity;BMP_temperature;BMP_pressure;BME280_temperature;BME280_humidity;BME280_pressure;Samples;Min_cycle;Max_cycle;Signal;HPM_P1;HPM_P2
2021/05/31 00:02:09;;;;;;;2.60;2.37;;;;;;;10.71;93.34;101343.03;4979570;28;20184;-71
2021/05/31 00:04:34;;;;;;;2.23;2.03;;;;;;;10.69;93.29;101347.94;4979441;28;20634;-71
2021/05/31 00:07:25;;;;;;;2.87;2.60;;;;;;;10.62;93.16;101345.56;4979296;28;20589;-71
2021/05/31 00:09:55;;;;;;;1.87;1.73;;;;;;;10.57;93.64;101344.81;4977141;28;20197;-71
2021/05/31 00:12:22;;;;;;;2.90;2.70;;;;;;;10.58;93.54;101341.81;4978041;28;20662;-71
2021/05/31 00:14:48;;;;;;;2.87;2.60;;;;;;;10.56;94.00;101338.53;4979313;28;20173;-71
2021/05/31 00:17:14;;;;;;;1.77;1.67;;;;;;;10.48;93.76;101339.16;4979504;28;20261;-71
2021/05/31 00:19:40;;;;;;;2.67;2.33;;;;;;;10.39;94.20;101325.31;4979005;28;20664;-71
2021/05/31 00:22:06;;;;;;;2.13;2.03;;;;;;;10.31;94.18;101336.88;4978387;28;20182;-71
2021/05/31 00:24:31;;;;;;;2.83;2.60;;;;;;;10.28;94.78;101334.72;4975692;28;20503;-71
2021/05/31 00:26:57;;;;;;;2.20;2.10;;;;;;;10.31;95.14;101330.59;4976238;28;20178;-71
2021/05/31 00:29:24;;;;;;;2.77;2.53;;;;;;;10.22;94.91;101326.84;4976502;28;20174;-71
2021/05/31 00:31:51;;;;;;;2.67;2.47;;;;;;;10.15;95.07;101329.91;4977585;28;20184;-71
2021/05/31 00:34:17;;;;;;;2.33;2.20;;;;;;;10.14;95.75;101329.09;4976995;28;20648;-71
2021/05/31 00:36:43;;;;;;;2.60;2.37;;;;;;;10.15;96.07;101335.34;4974950;28;20642;-71
2021/05/31 00:39:08;;;;;;;2.80;2.60;;;;;;;10.16;96.03;101330.72;4974801;28;20205;-72
2021/05/31 00:41:33;;;;;;;2.80;2.60;;;;;;;10.18;96.09;101325.78;4974713;28;20170;-71
2021/05/31 00:43:59;;;;;;;2.60;2.40;;;;;;;10.24;96.45;101325.44;4974699;28;20535;-71
2021/05/31 00:46:25;;;;;;;3.30;3.00;;;;;;;10.24;96.01;101321.91;4974681;28;20185;-72
2021/05/31 00:48:51;;;;;;;3.27;2.07;;;;;;;10.21;95.69;101322.47;4974389;28;20181;-71
2021/05/31 00:51:16;;;;;;;3.87;2.53;;;;;;;10.16;95.76;101327.97;4974508;28;20186;-71
2021/05/31 00:53:42;;;;;;;3.27;2.63;;;;;;;10.11;95.69;101329.63;4974614;28;20189;-71
2021/05/31 00:56:08;;;;;;;2.80;2.60;;;;;;;10.04;95.88;101331.06;4974526;28;20233;-71
2021/05/31 00:58:34;;;;;;;2.20;2.07;;;;;;;10.04;96.13;101331.88;4979029;28;20181;-71
2021/05/31 01:01:02;;;;;;;2.80;2.60;;;;;;;10.03;96.12;101335.72;4993843;28;20169;-71
2021/05/31 01:03:28;;;;;;;2.93;2.63;;;;;;;10.01;96.44;101334.38;4993752;28;20173;-71
2021/05/31 01:05:55;;;;;;;2.37;1.63;;;;;;;9.98;96.30;101329.47;4993729;28;20801;-71
2021/05/31 01:08:26;;;;;;;2.53;2.37;;;;;;;9.97;96.27;101327.84;4992357;28;20668;-72
2021/05/31 01:11:11;;;;;;;2.77;2.57;;;;;;;9.91;96.01;101335.28;4993784;28;20247;-71
2021/05/31 01:13:45;;;;;;;3.40;3.20;;;;;;;9.87;96.48;101325.22;4993759;28;20235;-71
2021/05/31 01:16:39;;;;;;;4.63;3.97;;;;;;;9.86;96.48;101329.03;4993521;28;20673;-71
2021/05/31 01:19:13;;;;;;;3.57;3.03;;;;;;;9.85;96.81;101322.78;4992205;28;20669;-71
2021/05/31 01:21:51;;;;;;;5.00;4.60;;;;;;;9.87;96.95;101327.94;4993590;28;20169;-71
2021/05/31 01:24:28;;;;;;;3.77;3.30;;;;;;;9.92;97.02;101327.91;4993438;28;20232;-71
2021/05/31 01:27:07;;;;;;;2.57;2.20;;;;;;;9.98;96.86;101327.59;4992421;28;20195;-71
2021/05/31 01:29:33;;;;;;;5.40;2.83;;;;;;;10.07;96.68;101335.97;4993591;28;20169;-72
2021/05/31 01:32:02;;;;;;;2.13;2.03;;;;;;;10.12;96.82;101330.44;4993482;28;20181;-71
2021/05/31 01:34:31;;;;;;;2.20;2.07;;;;;;;10.21;96.13;101320.56;4993056;28;20579;-72
2021/05/31 01:37:11;;;;;;;5.10;2.63;;;;;;;10.27;95.55;101321.31;4993087;28;20641;-72
2021/05/31 01:39:39;;;;;;;2.37;2.17;;;;;;;10.31;94.92;101322.41;4993579;28;20188;-71
2021/05/31 01:42:06;;;;;;;2.63;2.43;;;;;;;10.34;94.29;101325.38;4993390;28;20697;-71
2021/05/31 01:44:32;;;;;;;2.57;2.37;;;;;;;10.35;93.35;101327.00;4993440;28;20177;-72
2021/05/31 01:46:57;;;;;;;2.00;1.87;;;;;;;10.37;93.01;101322.06;4993184;28;20181;-72
2021/05/31 01:49:24;;;;;;;2.67;2.47;;;;;;;10.38;93.32;101325.59;4992996;28;20185;-72
2021/05/31 01:51:51;;;;;;;3.33;3.13;;;;;;;10.44;93.08;101321.72;4993223;28;20219;-72
2021/05/31 01:54:17;;;;;;;1.90;1.77;;;;;;;10.49;92.75;101327.13;4993350;28;20181;-71
2021/05/31 01:56:45;;;;;;;2.97;2.67;;;;;;;10.47;92.11;101323.88;4993228;28;20208;-72
2021/05/31 01:59:12;;;;;;;6.43;2.40;;;;;;;10.49;91.76;101318.94;4993032;28;20761;-72
2021/05/31 02:01:38;;;;;;;2.57;2.37;;;;;;;10.47;91.25;101320.34;4992828;28;20223;-71
2021/05/31 02:04:04;;;;;;;3.37;2.93;;;;;;;10.47;91.18;101326.59;4993303;28;20260;-72
2021/05/31 02:06:29;;;;;;;2.60;2.23;;;;;;;10.36;90.71;101319.63;4992802;28;20256;-72
2021/05/31 02:08:55;;;;;;;2.50;2.27;;;;;;;10.24;91.16;101311.81;4993028;28;20739;-71
2021/05/31 02:11:58;;;;;;;3.13;2.40;;;;;;;10.29;91.82;101313.69;4992808;28;20176;-72
2021/05/31 02:14:52;;;;;;;2.50;1.93;;;;;;;10.32;91.81;101318.56;4951791;29;20182;-72
2021/05/31 02:17:26;;;;;;;2.60;2.40;;;;;;;10.32;91.08;101313.09;4951766;29;20633;-72
2021/05/31 02:19:58;;;;;;;2.57;2.37;;;;;;;10.29;91.81;101316.41;4974165;28;20204;-72
2021/05/31 02:22:24;;;;;;;2.00;1.90;;;;;;;10.33;91.39;101312.00;4992763;28;20228;-72
2021/05/31 02:24:51;;;;;;;3.67;2.50;;;;;;;10.32;91.03;101313.09;4992676;28;20173;-72
2021/05/31 02:27:17;;;;;;;3.13;2.60;;;;;;;10.32;90.34;101305.72;4992916;28;20399;-72
2021/05/31 02:29:42;;;;;;;1.77;1.67;;;;;;;10.32;90.28;101310.38;4992798;28;20208;-72
2021/05/31 02:32:08;;;;;;;2.43;2.23;;;;;;;10.37;90.15;101310.31;4992515;28;20257;-72
2021/05/31 02:34:33;;;;;;;1.73;1.60;;;;;;;10.35;89.47;101312.53;4992785;28;20532;-71
2021/05/31 02:36:59;;;;;;;2.03;1.93;;;;;;;10.32;89.23;101316.66;4992268;28;20248;-71
2021/05/31 02:39:24;;;;;;;1.80;1.70;;;;;;;10.31;89.28;101316.94;4991682;28;20198;-72
2021/05/31 02:41:50;;;;;;;2.17;1.97;;;;;;;10.31;88.96;101314.22;4992531;28;20716;-72
2021/05/31 02:44:16;;;;;;;3.30;3.00;;;;;;;10.27;88.72;101311.25;4992779;28;20651;-71
2021/05/31 02:46:41;;;;;;;1.97;1.87;;;;;;;10.29;88.69;101311.78;4991733;28;20185;-72
2021/05/31 02:49:07;;;;;;;2.93;2.37;;;;;;;10.28;88.61;101314.78;4992312;28;20208;-72
2021/05/31 02:51:34;;;;;;;1.90;1.80;;;;;;;10.26;88.84;101320.50;4991065;28;20567;-72
2021/05/31 02:53:59;;;;;;;3.23;2.93;;;;;;;10.22;88.33;101313.19;4992543;28;20649;-71
2021/05/31 02:56:24;;;;;;;2.87;2.50;;;;;;;10.12;88.19;101322.25;4991157;28;20219;-71
2021/05/31 02:58:50;;;;;;;7.30;3.30;;;;;;;10.04;88.35;101317.44;4992326;28;20629;-72
2021/05/31 03:01:15;;;;;;;1.97;1.80;;;;;;;10.03;88.99;101321.25;4992638;28;20209;-72
2021/05/31 03:03:41;;;;;;;2.73;2.47;;;;;;;10.01;89.43;101318.81;4992363;28;20587;-72
2021/05/31 03:06:06;;;;;;;2.67;2.20;;;;;;;10.03;89.80;101322.06;4992482;28;20780;-72
2021/05/31 03:08:32;;;;;;;4.23;2.50;;;;;;;10.09;89.13;101323.66;4992343;28;20645;-72
2021/05/31 03:10:57;;;;;;;2.30;2.10;;;;;;;10.07;88.86;101314.13;4992537;28;20591;-72
2021/05/31 03:13:22;;;;;;;3.10;2.80;;;;;;;10.02;88.93;101325.09;4979003;28;20192;-72
2021/05/31 03:15:49;;;;;;;2.73;2.10;;;;;;;10.04;89.20;101320.97;4972968;28;20206;-72
2021/05/31 03:18:15;;;;;;;2.63;2.30;;;;;;;10.04;89.68;101320.97;4972795;28;20544;-71
2021/05/31 03:20:41;;;;;;;2.40;2.20;;;;;;;10.02;89.82;101323.19;4971869;28;20180;-71
2021/05/31 03:23:06;;;;;;;2.67;2.43;;;;;;;10.06;90.22;101317.94;4973408;28;20181;-70
2021/05/31 03:25:31;;;;;;;2.37;2.23;;;;;;;10.14;90.30;101317.34;4973101;28;20193;-71
2021/05/31 03:28:00;;;;;;;2.60;2.40;;;;;;;10.18;89.91;101326.59;4973020;28;20174;-71
2021/05/31 03:30:26;;;;;;;2.40;2.20;;;;;;;10.19;89.98;101330.94;4972840;28;20657;-71
2021/05/31 03:32:52;;;;;;;2.70;2.50;;;;;;;10.16;90.00;101331.53;4972822;28;20192;-71
2021/05/31 03:35:18;;;;;;;2.40;2.13;;;;;;;10.24;89.25;101330.09;4972720;28;20665;-71
2021/05/31 03:37:43;;;;;;;2.07;1.80;;;;;;;10.24;88.71;101333.66;4972952;28;20189;-71
2021/05/31 03:40:10;;;;;;;3.07;2.47;;;;;;;10.24;88.81;101339.09;4972937;28;20170;-72
2021/05/31 03:42:36;;;;;;;1.90;1.80;;;;;;;10.22;89.11;101335.84;4973168;28;20185;-71
2021/05/31 03:45:04;;;;;;;2.83;2.63;;;;;;;10.28;89.10;101334.72;4972890;28;20174;-71
2021/05/31 03:47:29;;;;;;;2.07;1.97;;;;;;;10.12;90.01;101333.19;4972722;28;20727;-71
2021/05/31 03:49:55;;;;;;;2.47;2.27;;;;;;;10.18;89.58;101334.78;4972942;28;20253;-71
2021/05/31 03:52:20;;;;;;;2.20;2.10;;;;;;;10.25;88.88;101334.47;4972690;28;20656;-72
2021/05/31 03:54:46;;;;;;;1.93;1.80;;;;;;;10.11;89.66;101337.00;4972434;28;20174;-71
2021/05/31 03:57:11;;;;;;;2.13;1.93;;;;;;;9.95;89.80;101330.84;4973352;28;20352;-72
2021/05/31 03:59:37;;;;;;;2.63;2.43;;;;;;;9.66;90.69;101340.91;4975704;28;20250;-71
2021/05/31 04:02:02;;;;;;;2.73;2.53;;;;;;;9.48;92.23;101342.38;4975723;28;20225;-72
2021/05/31 04:04:38;;;;;;;2.77;2.57;;;;;;;9.67;92.09;101337.88;4975531;28;20178;-71
2021/05/31 04:12:32;;;;;;;2.60;1.67;;;;;;;10.04;88.96;101340.09;4975934;28;20229;-71
2021/05/31 04:14:57;;;;;;;2.70;2.50;;;;;;;10.14;88.63;101344.66;4975560;28;20174;-71
2021/05/31 04:17:22;;;;;;;1.93;1.83;;;;;;;10.22;87.46;101329.56;4975492;28;20541;-71
2021/05/31 04:19:48;;;;;;;2.30;2.10;;;;;;;10.24;88.01;101343.75;4975140;28;20174;-70
2021/05/31 04:22:13;;;;;;;1.83;1.73;;;;;;;10.27;87.30;101348.63;4975126;28;20185;-70
2021/05/31 04:24:39;;;;;;;1.80;1.70;;;;;;;10.14;87.06;101353.66;4975096;28;20193;-70
2021/05/31 04:27:04;;;;;;;2.10;1.90;;;;;;;10.25;86.67;101348.13;4975187;28;20182;-70
2021/05/31 04:29:30;;;;;;;1.50;1.40;;;;;;;10.10;86.20;101346.31;4973815;28;20284;-70
2021/05/31 04:31:55;;;;;;;1.97;1.87;;;;;;;10.03;86.71;101340.38;4975208;28;20197;-70
2021/05/31 04:34:20;;;;;;;1.80;1.70;;;;;;;9.99;87.18;101345.59;4975164;28;20178;-71
2021/05/31 04:36:46;;;;;;;2.43;2.07;;;;;;;10.18;86.42;101350.34;4974500;28;20268;-71
2021/05/31 04:39:11;;;;;;;4.63;2.33;;;;;;;10.15;86.62;101351.75;4974478;28;20341;-71
2021/05/31 04:41:37;;;;;;;1.77;1.67;;;;;;;10.16;86.14;101353.38;4974633;28;20188;-70
2021/05/31 04:44:04;;;;;;;2.00;1.90;;;;;;;10.23;86.53;101344.88;4974586;28;20237;-70
2021/05/31 04:46:29;;;;;;;2.43;2.23;;;;;;;10.22;86.71;101354.97;4974459;28;20178;-71
2021/05/31 04:48:55;;;;;;;2.50;2.30;;;;;;;10.21;86.57;101352.50;4974536;28;20535;-71
2021/05/31 04:51:24;;;;;;;1.83;1.73;;;;;;;10.27;85.73;101348.63;4974483;28;20543;-71
2021/05/31 04:53:50;;;;;;;3.17;2.87;;;;;;;10.40;85.76;101347.97;4974633;28;20182;-70
2021/05/31 04:56:16;;;;;;;2.23;2.13;;;;;;;10.48;84.08;101344.63;4974506;28;20305;-71
2021/05/31 04:58:41;;;;;;;1.80;1.70;;;;;;;10.50;84.58;101347.88;4974370;28;20170;-71
2021/05/31 05:01:07;;;;;;;2.00;1.90;;;;;;;10.57;83.71;101347.56;4974499;28;20178;-71
2021/05/31 05:03:32;;;;;;;1.57;1.47;;;;;;;10.67;83.48;101341.97;4974699;28;20253;-71
2021/05/31 05:05:57;;;;;;;1.93;1.83;;;;;;;10.70;82.19;101346.84;4974460;28;20174;-71
2021/05/31 05:08:23;;;;;;;2.23;2.03;;;;;;;10.82;81.84;101346.44;4973901;28;20185;-70
2021/05/31 05:10:48;;;;;;;3.27;2.97;;;;;;;10.82;82.27;101341.78;4976886;28;20200;-70
2021/05/31 05:13:13;;;;;;;1.80;1.70;;;;;;;10.89;81.56;101339.53;4993745;28;20220;-71
2021/05/31 05:15:39;;;;;;;1.97;1.77;;;;;;;10.97;81.03;101336.16;4993440;28;20205;-71
2021/05/31 05:18:05;;;;;;;1.93;1.83;;;;;;;10.99;81.73;101335.84;4993557;28;20182;-71
2021/05/31 05:20:32;;;;;;;3.60;2.63;;;;;;;11.06;81.42;101333.59;4992550;28;20647;-70
2021/05/31 05:22:57;;;;;;;1.93;1.83;;;;;;;11.15;80.59;101340.06;4993605;28;20579;-70
2021/05/31 05:25:24;;;;;;;2.20;2.00;;;;;;;11.17;78.67;101335.09;4993699;28;20689;-70
2021/05/31 05:27:50;;;;;;;1.63;1.50;;;;;;;11.20;77.84;101337.25;4993770;28;20301;-70
2021/05/31 05:30:19;;;;;;;1.87;1.77;;;;;;;11.14;78.17;101338.44;4993697;28;20182;-70
2021/05/31 05:32:50;;;;;;;1.60;1.50;;;;;;;11.21;79.58;101341.59;4993728;28;20652;-70
2021/05/31 05:35:38;;;;;;;2.43;2.27;;;;;;;11.36;78.34;101339.78;4993732;28;20173;-70
2021/05/31 05:48:22;;;;;;;1.57;1.47;;;;;;;11.70;78.15;101336.81;4993557;28;20173;-70
2021/05/31 05:50:48;;;;;;;2.00;1.80;;;;;;;11.69;78.11;101346.94;4993232;28;20641;-69
2021/05/31 05:53:13;;;;;;;2.73;2.47;;;;;;;11.69;77.93;101343.41;4993231;28;20208;-70
2021/05/31 05:55:38;;;;;;;2.50;2.10;;;;;;;11.89;78.89;101340.41;4992881;28;20207;-69
2021/05/31 05:58:05;;;;;;;2.60;1.83;;;;;;;11.86;77.23;101339.06;4993554;28;20184;-70
2021/05/31 06:00:31;;;;;;;2.07;1.97;;;;;;;11.97;77.03;101344.38;4993204;28;20633;-70
2021/05/31 06:02:57;;;;;;;4.57;1.97;;;;;;;11.97;76.23;101347.09;4992989;28;20256;-70
2021/05/31 06:05:23;;;;;;;2.60;2.40;;;;;;;12.06;76.75;101346.13;4993167;28;20181;-70
2021/05/31 06:07:48;;;;;;;2.30;2.03;;;;;;;12.06;76.17;101340.66;4992896;28;20169;-70
2021/05/31 06:10:15;;;;;;;2.13;2.00;;;;;;;12.06;77.00;101348.88;4993341;28;20173;-70
2021/05/31 06:12:41;;;;;;;2.90;2.70;;;;;;;12.23;77.39;101355.72;4993046;28;20203;-70
2021/05/31 06:15:09;;;;;;;3.27;2.40;;;;;;;12.17;74.53;101352.25;4993193;28;20776;-70
2021/05/31 06:17:34;;;;;;;1.73;1.63;;;;;;;12.40;74.11;101350.47;4990103;28;20694;-70
2021/05/31 06:20:01;;;;;;;1.90;1.80;;;;;;;12.50;72.75;101347.56;4982138;28;20252;-71
2021/05/31 06:22:32;;;;;;;1.63;1.53;;;;;;;12.47;72.78;101356.41;4988490;28;20184;-70
2021/05/31 06:24:58;;;;;;;1.90;1.60;;;;;;;12.66;73.48;101346.16;4993254;28;20634;-70
2021/05/31 06:27:24;;;;;;;1.77;1.67;;;;;;;12.79;73.84;101350.03;4993257;28;20272;-70
2021/05/31 06:29:49;;;;;;;2.00;1.90;;;;;;;12.81;72.43;101350.53;4991509;28;20185;-70
2021/05/31 06:32:15;;;;;;;2.80;2.27;;;;;;;12.78;71.44;101353.91;4992018;28;20209;-70
2021/05/31 06:34:40;;;;;;;1.60;1.50;;;;;;;12.93;71.32;101350.03;4990785;28;20185;-71
2021/05/31 06:37:05;;;;;;;2.30;2.10;;;;;;;12.89;71.09;101349.84;4993124;28;20224;-70
2021/05/31 06:39:31;;;;;;;1.50;1.40;;;;;;;12.93;70.80;101353.59;4993362;28;20181;-70
2021/05/31 06:41:56;;;;;;;1.47;1.37;;;;;;;13.01;70.32;101338.34;4994663;28;20176;-70
2021/05/31 06:44:21;;;;;;;1.93;1.73;;;;;;;13.21;71.75;101348.13;4993505;28;20166;-73
2021/05/31 06:46:47;;;;;;;1.50;1.40;;;;;;;13.13;71.55;101348.81;4992350;28;20180;-72
2021/05/31 06:49:12;;;;;;;1.53;1.43;;;;;;;13.36;72.65;101337.63;4990424;28;20661;-72
2021/05/31 06:51:38;;;;;;;2.30;2.10;;;;;;;13.53;71.13;101342.47;4991619;28;20176;-72
2021/05/31 06:54:03;;;;;;;1.20;1.10;;;;;;;13.48;70.55;101342.59;4991707;28;20208;-70
2021/05/31 06:56:29;;;;;;;1.63;1.53;;;;;;;13.58;71.01;101347.03;4991596;28;20747;-71
2021/05/31 06:58:54;;;;;;;2.00;1.67;;;;;;;13.57;69.27;101337.97;4991504;28;20220;-70
2021/05/31 07:01:20;;;;;;;2.07;1.87;;;;;;;13.46;68.76;101344.03;4991447;28;20181;-70
2021/05/31 07:03:45;;;;;;;2.00;1.50;;;;;;;13.64;69.04;101346.63;4989945;28;20192;-70
2021/05/31 07:06:10;;;;;;;1.60;1.50;;;;;;;13.68;68.59;101341.31;4972131;28;20197;-70
2021/05/31 07:08:36;;;;;;;1.90;1.70;;;;;;;13.67;68.04;101342.44;4972071;28;20185;-70
2021/05/31 07:11:08;;;;;;;1.90;1.70;;;;;;;13.81;66.59;101347.88;4972347;28;20645;-70
2021/05/31 07:13:34;;;;;;;1.37;1.27;;;;;;;14.00;66.99;101340.25;4972086;28;20365;-70
2021/05/31 07:15:59;;;;;;;1.60;1.40;;;;;;;14.23;66.26;101341.06;4971972;28;20944;-70
2021/05/31 07:18:24;;;;;;;1.63;1.53;;;;;;;14.25;64.59;101344.31;4971884;28;20178;-70
2021/05/31 07:20:52;;;;;;;1.97;1.70;;;;;;;14.01;65.95;101322.66;4972039;28;20261;-70
2021/05/31 07:23:17;;;;;;;2.20;1.37;;;;;;;14.17;63.71;101331.31;4972177;28;20220;-70
2021/05/31 07:25:43;;;;;;;1.80;1.63;;;;;;;14.43;64.40;101336.97;4972289;28;20185;-72
2021/05/31 07:28:08;;;;;;;1.70;1.60;;;;;;;14.31;64.03;101337.56;4971832;28;20185;-72
2021/05/31 07:30:34;;;;;;;2.23;2.03;;;;;;;14.44;63.64;101336.69;4971980;28;20173;-72
2021/05/31 07:33:00;;;;;;;1.83;1.73;;;;;;;14.41;62.81;101333.72;4974254;28;20174;-72
2021/05/31 07:35:26;;;;;;;1.40;1.30;;;;;;;14.38;62.28;101326.94;4975792;28;20204;-73
2021/05/31 07:37:51;;;;;;;2.07;1.83;;;;;;;14.45;60.30;101326.50;4975621;28;20182;-72
2021/05/31 07:40:17;;;;;;;0.93;0.93;;;;;;;14.50;59.59;101329.13;4976186;28;20177;-73
2021/05/31 07:42:44;;;;;;;1.30;1.20;;;;;;;14.85;61.56;101332.84;4975646;28;20181;-73
2021/05/31 07:45:12;;;;;;;1.70;1.60;;;;;;;14.65;60.44;101325.97;4979610;28;20169;-73
2021/05/31 07:47:38;;;;;;;1.00;1.00;;;;;;;14.67;58.73;101323.72;4995221;28;20177;-75
2021/05/31 07:50:06;;;;;;;1.53;1.10;;;;;;;14.82;57.48;101338.97;4995061;28;20177;-80
2021/05/31 07:52:31;;;;;;;1.50;1.40;;;;;;;14.76;58.43;101330.06;4994973;28;20180;-72
2021/05/31 07:54:57;;;;;;;1.10;1.00;;;;;;;14.75;58.28;101331.16;4994936;28;20181;-72
2021/05/31 07:57:24;;;;;;;2.80;1.70;;;;;;;14.87;58.56;101336.06;4994796;28;20205;-72
2021/05/31 07:59:51;;;;;;;1.50;1.40;;;;;;;14.94;57.70;101330.94;4995137;28;20188;-71
2021/05/31 08:02:16;;;;;;;1.40;1.30;;;;;;;15.08;55.97;101333.56;4994790;28;20181;-71
2021/05/31 08:04:45;;;;;;;0.97;0.93;;;;;;;15.34;57.41;101325.38;4994696;28;20238;-72
2021/05/31 08:07:11;;;;;;;2.40;1.50;;;;;;;15.20;54.71;101330.19;4994799;28;20735;-72
2021/05/31 08:09:38;;;;;;;1.07;1.07;;;;;;;15.24;54.74;101331.16;4994741;28;20181;-72
2021/05/31 08:12:13;;;;;;;1.20;1.10;;;;;;;15.26;55.53;101329.72;4995301;28;20258;-72
2021/05/31 08:14:39;;;;;;;0.93;0.77;;;;;;;15.17;55.05;101332.44;4994447;28;20557;-71
2021/05/31 08:17:04;;;;;;;2.00;1.70;;;;;;;15.28;55.68;101335.72;4993136;28;20209;-71
2021/05/31 08:19:31;;;;;;;0.90;0.90;;;;;;;15.48;54.91;101324.09;4994248;28;20517;-72
2021/05/31 08:21:58;;;;;;;1.13;1.03;;;;;;;15.32;54.06;101333.13;4994406;28;20178;-72
2021/05/31 08:24:40;;;;;;;1.10;1.00;;;;;;;15.45;53.69;101327.47;4994418;28;20625;-71
2021/05/31 08:27:06;;;;;;;1.20;1.13;;;;;;;15.22;53.39;101325.19;4994533;28;20165;-71
2021/05/31 08:29:31;;;;;;;1.23;1.10;;;;;;;15.16;54.62;101332.75;4994053;28;20827;-72
2021/05/31 08:31:57;;;;;;;1.30;1.07;;;;;;;15.40;53.82;101324.88;4994591;28;20185;-71
2021/05/31 08:34:24;;;;;;;0.80;0.80;;;;;;;15.45;52.76;101321.94;4994536;28;20181;-71
2021/05/31 08:36:50;;;;;;;1.23;1.13;;;;;;;15.63;53.24;101322.81;4992675;28;20205;-72
2021/05/31 08:39:15;;;;;;;1.30;1.20;;;;;;;15.62;54.81;101320.38;4994055;28;20227;-72
2021/05/31 08:41:41;;;;;;;1.63;1.47;;;;;;;15.50;53.37;101320.19;4994406;28;20689;-71
2021/05/31 08:44:07;;;;;;;1.03;1.03;;;;;;;15.68;53.14;101319.09;4993227;28;20546;-71
2021/05/31 08:46:34;;;;;;;1.23;0.90;;;;;;;15.46;53.41;101322.75;4978809;28;20256;-71
2021/05/31 08:49:00;;;;;;;1.30;1.20;;;;;;;15.68;53.18;101327.34;4974294;28;20240;-71
2021/05/31 08:51:26;;;;;;;1.73;1.63;;;;;;;15.27;53.06;101320.31;4974602;28;20182;-71
2021/05/31 08:53:52;;;;;;;2.20;1.03;;;;;;;15.34;52.96;101315.16;4974266;28;20240;-71
2021/05/31 08:56:17;;;;;;;0.90;0.90;;;;;;;15.45;53.63;101323.91;4974219;28;20716;-72
2021/05/31 08:58:44;;;;;;;1.67;1.13;;;;;;;15.60;53.03;101319.88;4974224;28;20185;-73
2021/05/31 09:01:10;;;;;;;1.40;1.30;;;;;;;15.76;52.32;101315.50;4974363;28;20224;-73
2021/05/31 09:03:36;;;;;;;1.03;0.97;;;;;;;15.71;51.35;101312.94;4974187;28;20178;-73
2021/05/31 09:06:04;;;;;;;0.70;0.70;;;;;;;15.97;50.29;101313.72;4974162;28;20579;-73
2021/05/31 09:08:30;;;;;;;0.67;0.67;;;;;;;15.92;49.13;101313.09;4974062;28;20646;-72
2021/05/31 09:11:01;;;;;;;0.87;0.80;;;;;;;16.06;48.10;101308.22;4974031;28;20184;-72
2021/05/31 09:13:29;;;;;;;1.23;1.00;;;;;;;16.22;47.19;101308.50;4973888;28;20194;-73
2021/05/31 09:16:16;;;;;;;1.17;1.07;;;;;;;16.35;47.91;101308.31;4976585;28;20216;-73
2021/05/31 09:18:50;;;;;;;1.03;0.90;;;;;;;16.26;46.08;101306.69;4993003;28;20239;-73
2021/05/31 09:21:24;;;;;;;1.10;1.00;;;;;;;16.45;45.86;101309.88;4993268;28;20168;-73
2021/05/31 09:23:59;;;;;;;1.43;0.70;;;;;;;16.02;44.56;101304.47;4992020;28;20173;-72
2021/05/31 09:26:26;;;;;;;0.90;0.80;;;;;;;16.47;45.05;101304.81;4973865;28;20633;-73
2021/05/31 09:29:00;;;;;;;1.17;1.07;;;;;;;16.23;44.16;101304.59;4973602;28;20182;-72
2021/05/31 09:31:27;;;;;;;0.90;0.70;;;;;;;16.18;44.21;101302.81;4973526;28;20185;-72
2021/05/31 09:34:00;;;;;;;0.93;0.93;;;;;;;16.64;44.84;101295.69;4973770;28;20178;-73
2021/05/31 09:36:26;;;;;;;0.73;0.73;;;;;;;16.58;42.10;101300.56;4974644;28;20202;-73
2021/05/31 09:38:52;;;;;;;0.60;0.43;;;;;;;16.59;39.87;101299.44;4992785;28;20231;-73
2021/05/31 09:41:28;;;;;;;0.73;0.70;;;;;;;16.66;38.54;101296.97;4993019;28;20178;-72
2021/05/31 09:43:59;;;;;;;0.40;0.40;;;;;;;16.86;41.65;101300.97;4992942;28;20699;-72
2021/05/31 09:46:37;;;;;;;0.80;0.80;;;;;;;16.82;42.25;101296.44;4992985;28;20173;-73
2021/05/31 09:49:14;;;;;;;0.73;0.73;;;;;;;16.47;39.08;101293.78;4992689;28;20637;-72
2021/05/31 09:51:54;;;;;;;0.80;0.53;;;;;;;16.63;34.55;101294.06;4992841;28;20622;-73
2021/05/31 09:54:32;;;;;;;1.27;0.40;;;;;;;16.79;32.94;101291.59;4992639;28;20663;-73
2021/05/31 09:57:19;;;;;;;0.60;0.40;;;;;;;16.71;32.80;101295.19;4992691;28;20228;-73
2021/05/31 09:59:47;;;;;;;0.70;0.70;;;;;;;16.80;34.18;101287.69;4988469;28;20588;-73
2021/05/31 10:02:16;;;;;;;0.60;0.60;;;;;;;16.74;35.77;101287.06;4992817;28;20177;-73
2021/05/31 10:07:26;;;;;;;1.10;0.77;;;;;;;16.56;35.18;101291.81;4992660;28;20191;-73
2021/05/31 10:09:51;;;;;;;0.70;0.70;;;;;;;17.11;36.12;101287.34;4992343;28;20161;-73
2021/05/31 10:12:17;;;;;;;0.70;0.50;;;;;;;17.33;36.55;101291.75;4992558;28;20527;-73
2021/05/31 10:14:45;;;;;;;0.87;0.63;;;;;;;17.51;37.78;101293.25;4992135;28;20196;-72
2021/05/31 10:17:12;;;;;;;0.50;0.50;;;;;;;17.60;35.86;101271.06;4992231;28;20205;-73
2021/05/31 10:19:39;;;;;;;0.90;0.57;;;;;;;17.72;36.72;101274.72;4990823;28;20192;-73
2021/05/31 10:22:04;;;;;;;0.90;0.60;;;;;;;17.83;36.33;101275.91;4992164;28;20195;-73
2021/05/31 10:24:32;;;;;;;0.50;0.50;;;;;;;17.63;36.20;101265.66;4992045;28;20585;-73
2021/05/31 10:26:59;;;;;;;0.60;0.50;;;;;;;17.46;34.16;101265.81;4992163;28;20223;-73
2021/05/31 10:29:25;;;;;;;0.50;0.50;;;;;;;17.58;34.67;101268.63;4991943;28;20760;-73
2021/05/31 10:31:50;;;;;;;1.30;0.40;;;;;;;17.70;35.22;101260.41;4992060;28;20235;-72
2021/05/31 10:34:20;;;;;;;0.40;0.40;;;;;;;17.72;35.24;101263.66;4991978;28;20648;-72
2021/05/31 10:36:50;;;;;;;0.97;0.53;;;;;;;17.43;34.50;101247.94;4991704;28;20211;-72
2021/05/31 10:39:27;;;;;;;0.50;0.50;;;;;;;17.61;32.44;101251.38;4991820;28;20614;-72
2021/05/31 10:42:07;;;;;;;0.40;0.30;;;;;;;17.76;31.42;101250.75;4991769;28;20181;-72
2021/05/31 10:44:33;;;;;;;0.50;0.47;;;;;;;17.77;31.68;101241.31;4991850;28;20264;-72
2021/05/31 10:47:06;;;;;;;0.50;0.50;;;;;;;17.80;33.63;101248.16;4991635;28;20264;-72
2021/05/31 10:49:31;;;;;;;0.40;0.40;;;;;;;18.10;34.27;101246.03;4991701;28;20624;-72
2021/05/31 10:51:57;;;;;;;0.30;0.30;;;;;;;18.12;34.68;101249.25;4992111;28;20263;-72
2021/05/31 10:54:25;;;;;;;0.40;0.33;;;;;;;18.16;31.33;101239.13;4991863;28;20201;-72
2021/05/31 10:56:52;;;;;;;0.30;0.30;;;;;;;17.64;30.12;101252.63;4991702;28;20201;-72
2021/05/31 10:59:20;;;;;;;0.40;0.40;;;;;;;17.63;31.19;101253.78;4991625;28;20664;-72
2021/05/31 11:01:45;;;;;;;0.83;0.60;;;;;;;17.93;33.03;101248.97;4991560;28;20177;-72
2021/05/31 11:04:21;;;;;;;0.50;0.50;;;;;;;18.35;34.21;101246.84;4991613;28;20203;-72
2021/05/31 11:06:48;;;;;;;0.50;0.50;;;;;;;17.89;32.88;101246.09;4991070;28;20172;-73
2021/05/31 11:09:15;;;;;;;0.30;0.30;;;;;;;18.14;33.16;101244.19;4991521;28;20177;-72
2021/05/31 11:11:55;;;;;;;0.40;0.40;;;;;;;18.35;32.20;101241.31;4990023;28;20188;-72
2021/05/31 11:14:43;;;;;;;0.43;0.40;;;;;;;18.02;31.05;101238.63;4989025;28;20193;-72
2021/05/31 11:17:13;;;;;;;0.70;0.33;;;;;;;18.12;31.84;101241.78;4991412;28;20499;-72
2021/05/31 11:19:42;;;;;;;0.40;0.40;;;;;;;18.36;35.15;101238.22;4990039;28;20177;-72
2021/05/31 11:22:21;;;;;;;0.23;0.23;;;;;;;18.44;31.34;101234.53;4991381;28;20181;-72
2021/05/31 11:24:55;;;;;;;0.33;0.30;;;;;;;18.39;30.17;101237.53;4991506;28;20216;-72
2021/05/31 11:27:26;;;;;;;0.30;0.30;;;;;;;18.51;30.65;101224.84;4991328;28;20185;-72
2021/05/31 11:29:52;;;;;;;0.30;0.30;;;;;;;18.33;30.50;101233.38;4991437;28;20504;-73
2021/05/31 11:32:18;;;;;;;0.50;0.50;;;;;;;18.67;34.18;101217.53;4991326;28;20169;-72
2021/05/31 11:34:58;;;;;;;0.30;0.30;;;;;;;18.61;32.62;101218.84;4991390;28;20236;-72
2021/05/31 11:37:25;;;;;;;0.50;0.50;;;;;;;18.40;31.50;101216.22;4991538;28;20244;-71
2021/05/31 11:39:52;;;;;;;0.80;0.50;;;;;;;18.66;32.26;101216.72;4991407;28;20234;-72
2021/05/31 11:42:18;;;;;;;1.13;0.73;;;;;;;18.78;31.64;101217.84;4991371;28;20184;-72
2021/05/31 11:44:49;;;;;;;0.30;0.30;;;;;;;18.85;31.98;101216.09;4991332;28;20185;-73
2021/05/31 11:47:20;;;;;;;0.30;0.30;;;;;;;19.07;31.58;101217.53;4991556;28;20170;-73
2021/05/31 11:49:45;;;;;;;0.40;0.40;;;;;;;19.21;29.46;101206.88;4990389;28;20189;-72